Sopchoppy, Florida
Current Conditions -  °F | °C
As of 9:53 AM on Thursday 30 Oct 2014 (Local Time) from KTLH Reporting Station
Broken Clouds Broken Clouds  
Wind Chill: 18°   Ceiling: 3700
Heat Index: 18°   Visibility: 10mi
Dew Point:   Wind: 7mph
Humidity: 52%   Direction: 360°N
Pressure: 30.03"   Gusts: NA
Location:  30.06°N, 84.49°W
Report Text: KTLH 301353Z 36006KT 10SM BKN037 BKN100 18/08 A3003 RMK AO2 SLP169 T01830083
Loading
Personal Weather Stations






























Interactive Weather Map
Tropical Storm Tracking
New forecast layout! Learn more

10-Day Weather Forecast

Advertisements
Track Severe Weather on mobile